createdAt,value
2018-06-25T00:00:51.831Z,82.21
2018-06-25T00:03:20.006Z,82.05
2018-06-25T00:05:48.213Z,82.48
2018-06-25T00:08:16.493Z,81.90
2018-06-25T00:10:44.746Z,81.78
2018-06-25T00:13:12.946Z,81.76
2018-06-25T00:15:41.227Z,82.78
2018-06-25T00:18:09.408Z,82.96
2018-06-25T00:20:37.689Z,82.14
2018-06-25T00:23:05.935Z,82.01
2018-06-25T00:25:34.146Z,83.04
2018-06-25T00:28:02.343Z,82.35
2018-06-25T00:30:30.622Z,82.64
2018-06-25T00:32:59.031Z,82.53
2018-06-25T00:35:27.325Z,82.91
2018-06-25T00:37:55.692Z,83.11
2018-06-25T00:40:23.844Z,83.06
2018-06-25T00:42:52.048Z,81.80
2018-06-25T00:45:20.228Z,82.25
2018-06-25T00:47:48.469Z,82.73
2018-06-25T00:50:16.631Z,82.12
2018-06-25T00:52:45.077Z,82.42
2018-06-25T00:55:13.359Z,82.41
2018-06-25T00:57:41.561Z,82.82
2018-06-25T01:00:09.737Z,82.46
2018-06-25T01:02:37.889Z,82.17
2018-06-25T01:05:06.133Z,82.82
2018-06-25T01:07:34.326Z,82.40
2018-06-25T01:10:02.576Z,82.19
2018-06-25T01:12:30.803Z,83.36
2018-06-25T01:14:59.091Z,82.39
2018-06-25T01:17:27.251Z,82.33
2018-06-25T01:19:55.477Z,81.98
2018-06-25T01:22:23.749Z,82.70
2018-06-25T01:24:52.945Z,82.52
2018-06-25T01:27:21.109Z,82.38
2018-06-25T01:29:49.314Z,82.61
2018-06-25T01:32:17.457Z,83.05
2018-06-25T01:34:45.601Z,82.54
2018-06-25T01:37:13.776Z,82.25
2018-06-25T01:39:41.973Z,82.05
2018-06-25T01:42:10.146Z,82.25
2018-06-25T01:44:40.402Z,82.64
2018-06-25T01:47:09.501Z,82.36
2018-06-25T01:49:37.686Z,82.14
2018-06-25T01:52:06.112Z,82.48
2018-06-25T01:54:34.285Z,82.11
2018-06-25T01:57:02.491Z,83.02
2018-06-25T01:59:30.682Z,82.37
2018-06-25T02:01:58.864Z,82.79
2018-06-25T02:04:27.490Z,82.15
2018-06-25T02:06:55.638Z,81.93
2018-06-25T02:09:23.830Z,82.06
2018-06-25T02:11:52.022Z,81.79
2018-06-25T02:14:20.181Z,82.07
2018-06-25T02:16:48.394Z,82.41
2018-06-25T02:19:17.341Z,81.47
2018-06-25T02:21:45.590Z,82.42
2018-06-25T02:24:13.752Z,82.39
2018-06-25T02:26:42.665Z,83.74
2018-06-25T02:29:10.991Z,82.50
2018-06-25T02:31:39.240Z,82.93
2018-06-25T02:34:07.450Z,82.35
2018-06-25T02:36:35.664Z,82.24
2018-06-25T02:39:04.378Z,81.83
2018-06-25T02:41:32.700Z,82.77
2018-06-25T02:44:00.933Z,82.59
2018-06-25T02:46:29.181Z,82.30
2018-06-25T02:48:57.427Z,82.12
2018-06-25T02:51:25.704Z,82.85
2018-06-25T02:53:53.878Z,82.43
2018-06-25T02:56:22.056Z,82.96
2018-06-25T02:58:50.261Z,82.66
2018-06-25T03:01:18.711Z,82.67
2018-06-25T03:03:47.152Z,82.55
2018-06-25T03:06:15.349Z,82.78
2018-06-25T03:08:43.518Z,83.07
2018-06-25T03:11:11.744Z,82.53
2018-06-25T03:13:39.880Z,82.30
2018-06-25T03:16:08.082Z,82.31
2018-06-25T03:18:36.625Z,82.80
2018-06-25T03:21:04.795Z,82.25
2018-06-25T03:23:32.978Z,82.38
2018-06-25T03:26:01.590Z,81.92
2018-06-25T03:28:34.572Z,82.13
2018-06-25T03:31:02.711Z,81.67
2018-06-25T03:33:30.890Z,81.92
2018-06-25T03:35:59.095Z,81.72
2018-06-25T03:38:27.365Z,82.11
2018-06-25T03:41:04.484Z,81.42
2018-06-25T03:43:37.466Z,81.59
2018-06-25T03:46:05.679Z,82.73
2018-06-25T03:48:33.908Z,81.64
2018-06-25T03:51:02.093Z,82.49
2018-06-25T03:53:30.335Z,81.93
2018-06-25T03:55:58.566Z,82.20
2018-06-25T03:58:26.751Z,81.85
2018-06-25T04:00:55.163Z,82.28
2018-06-25T04:03:23.534Z,82.52
2018-06-25T04:05:51.733Z,83.15
2018-06-25T04:08:20.101Z,83.01
2018-06-25T04:10:48.271Z,82.42
2018-06-25T04:13:16.436Z,82.35
2018-06-25T04:15:44.620Z,82.52
2018-06-25T04:18:13.066Z,82.54
2018-06-25T04:20:41.297Z,82.93
2018-06-25T04:23:09.763Z,82.92
2018-06-25T04:25:37.928Z,82.93
2018-06-25T04:28:06.101Z,83.28
2018-06-25T04:30:34.293Z,82.00
2018-06-25T04:33:02.493Z,82.41
2018-06-25T04:35:30.724Z,82.27
2018-06-25T04:37:58.889Z,83.05
2018-06-25T04:40:27.170Z,83.21
2018-06-25T04:42:55.454Z,82.97
2018-06-25T04:45:23.620Z,83.47
2018-06-25T04:47:51.822Z,83.45
2018-06-25T04:50:20.010Z,83.20
2018-06-25T04:52:48.254Z,83.18
2018-06-25T04:55:16.529Z,83.05
2018-06-25T04:57:44.727Z,83.51
2018-06-25T05:00:13.006Z,83.18
2018-06-25T05:02:41.249Z,83.50
2018-06-25T05:05:09.511Z,83.82
2018-06-25T05:07:37.705Z,83.28
2018-06-25T05:10:05.956Z,83.32
2018-06-25T05:12:34.178Z,83.41
2018-06-25T05:15:02.442Z,83.02
2018-06-25T05:17:30.638Z,82.37
2018-06-25T05:19:59.085Z,81.57
2018-06-25T05:22:27.324Z,82.18
2018-06-25T05:24:55.621Z,82.22
2018-06-25T05:27:23.816Z,82.14
2018-06-25T05:29:52.017Z,82.01
2018-06-25T05:32:20.215Z,81.97
2018-06-25T05:34:48.437Z,81.69
2018-06-25T05:37:16.741Z,81.44
2018-06-25T05:39:45.041Z,81.51
2018-06-25T05:42:18.648Z,82.36
2018-06-25T05:44:46.882Z,81.83
2018-06-25T05:47:15.158Z,81.80
2018-06-25T05:49:43.413Z,81.84
2018-06-25T05:52:11.624Z,81.53
2018-06-25T05:54:39.818Z,81.58
2018-06-25T05:57:08.000Z,81.79
2018-06-25T05:59:36.200Z,81.47
2018-06-25T06:02:04.373Z,81.36
2018-06-25T06:04:32.534Z,81.25
2018-06-25T06:07:00.675Z,81.42
2018-06-25T06:09:28.842Z,81.60
2018-06-25T06:11:57.195Z,81.35
2018-06-25T06:14:25.405Z,81.54
2018-06-25T06:16:53.741Z,81.46
2018-06-25T06:19:22.275Z,80.98
2018-06-25T06:21:50.499Z,81.25
2018-06-25T06:24:18.785Z,81.21
2018-06-25T06:26:47.025Z,80.93
2018-06-25T06:29:15.277Z,81.44
2018-06-25T06:31:43.433Z,81.34
2018-06-25T06:34:11.669Z,81.19
2018-06-25T06:36:40.096Z,81.62
2018-06-25T06:39:12.444Z,81.05
2018-06-25T06:41:40.643Z,81.47
2018-06-25T06:44:09.102Z,81.60
2018-06-25T06:46:37.463Z,81.48
2018-06-25T06:49:05.825Z,81.30
2018-06-25T06:51:34.580Z,81.48
2018-06-25T06:54:03.238Z,81.64
2018-06-25T06:56:31.475Z,81.26
2018-06-25T06:58:59.702Z,81.34
2018-06-25T07:01:27.862Z,80.91
2018-06-25T07:03:56.229Z,81.21
2018-06-25T07:06:24.439Z,81.31
2018-06-25T07:08:52.649Z,81.63
2018-06-25T07:11:20.839Z,81.52
2018-06-25T07:13:49.113Z,81.58
2018-06-25T07:16:17.425Z,82.25
2018-06-25T07:18:45.624Z,82.13
2018-06-25T07:21:13.853Z,82.16
2018-06-25T07:23:42.587Z,81.79
2018-06-25T07:26:10.897Z,81.96
2018-06-25T07:28:39.169Z,82.06
2018-06-25T07:31:07.440Z,81.97
2018-06-25T07:33:35.660Z,81.71
2018-06-25T07:36:03.889Z,82.44
2018-06-25T07:38:32.117Z,82.02
2018-06-25T07:41:00.336Z,81.38
2018-06-25T07:43:28.534Z,81.71
2018-06-25T07:45:56.843Z,81.19
2018-06-25T07:48:25.608Z,81.41
2018-06-25T07:50:53.802Z,81.31
2018-06-25T07:53:22.004Z,81.09
2018-06-25T07:55:50.220Z,81.14
2018-06-25T07:58:18.472Z,81.57
2018-06-25T08:00:47.741Z,82.11
2018-06-25T08:03:15.941Z,80.96
2018-06-25T08:05:44.156Z,80.37
2018-06-25T08:08:12.400Z,79.64
2018-06-25T08:10:40.656Z,80.43
2018-06-25T08:13:09.012Z,80.67
2018-06-25T08:15:37.270Z,80.12
2018-06-25T08:18:05.673Z,80.17
2018-06-25T08:20:33.889Z,80.49
2018-06-25T08:23:02.119Z,79.88
2018-06-25T08:25:30.301Z,80.10
2018-06-25T08:27:58.510Z,79.43
2018-06-25T08:30:26.692Z,78.99
2018-06-25T08:32:55.293Z,79.52
2018-06-25T08:35:23.856Z,79.02
2018-06-25T08:37:52.060Z,79.39
2018-06-25T08:40:20.326Z,79.50
2018-06-25T08:42:48.452Z,79.20
2018-06-25T08:45:17.162Z,79.69
2018-06-25T08:47:45.768Z,78.85
2018-06-25T08:50:14.317Z,79.06
2018-06-25T08:52:42.481Z,78.83
2018-06-25T08:55:10.697Z,78.19
2018-06-25T08:57:38.913Z,78.28
2018-06-25T09:00:07.569Z,77.81
2018-06-25T09:02:36.009Z,77.38
2018-06-25T09:05:04.735Z,77.78
2018-06-25T09:07:32.886Z,77.46
2018-06-25T09:10:01.140Z,77.95
2018-06-25T09:12:29.327Z,78.08
2018-06-25T09:14:57.502Z,78.04
2018-06-25T09:17:25.642Z,77.86
2018-06-25T09:19:53.850Z,78.06
2018-06-25T09:22:22.053Z,78.33
2018-06-25T09:24:50.276Z,78.34
2018-06-25T09:27:18.419Z,79.00
2018-06-25T09:29:46.589Z,78.15
2018-06-25T09:32:14.779Z,78.20
2018-06-25T09:34:49.244Z,78.42
2018-06-25T09:37:18.168Z,78.07
2018-06-25T09:39:46.428Z,78.13
2018-06-25T09:42:14.592Z,78.35
2018-06-25T09:44:42.812Z,78.54
2018-06-25T09:47:11.187Z,78.62
2018-06-25T09:49:39.482Z,78.07
2018-06-25T09:52:07.669Z,78.50
2018-06-25T09:54:35.844Z,77.71
2018-06-25T09:57:04.032Z,77.40
2018-06-25T09:59:32.279Z,78.37
2018-06-25T10:02:00.489Z,77.90
2018-06-25T10:04:28.714Z,76.90
2018-06-25T10:06:57.025Z,76.65
2018-06-25T10:09:25.371Z,76.98
2018-06-25T10:11:53.677Z,76.76
2018-06-25T10:14:21.915Z,76.87
2018-06-25T10:16:50.088Z,77.89
2018-06-25T10:19:18.320Z,76.00
2018-06-25T10:21:46.541Z,76.09
2018-06-25T10:24:14.760Z,75.28
2018-06-25T10:26:43.080Z,75.95
2018-06-25T10:29:11.248Z,76.02
2018-06-25T10:31:39.692Z,76.66
2018-06-25T10:34:07.900Z,76.30
2018-06-25T10:36:36.067Z,76.08
2018-06-25T10:39:06.372Z,77.84
2018-06-25T10:41:34.544Z,78.55
2018-06-25T10:44:02.873Z,78.34
2018-06-25T10:46:31.108Z,78.20
2018-06-25T10:48:59.354Z,78.87
2018-06-25T10:51:27.766Z,77.73
2018-06-25T10:53:55.926Z,78.34
2018-06-25T10:56:24.162Z,78.92
2018-06-25T10:58:52.326Z,78.53
2018-06-25T11:01:20.496Z,77.94
2018-06-25T11:03:48.665Z,78.08
2018-06-25T11:06:17.181Z,77.60
2018-06-25T11:08:45.352Z,77.58
2018-06-25T11:11:13.566Z,77.49
2018-06-25T11:13:41.787Z,77.46
2018-06-25T11:16:09.981Z,78.48
2018-06-25T11:18:38.182Z,77.98
2018-06-25T11:21:06.449Z,76.99
2018-06-25T11:23:34.680Z,76.58
2018-06-25T11:26:02.961Z,77.08
2018-06-25T11:28:31.191Z,76.80
2018-06-25T11:30:59.446Z,77.22
2018-06-25T11:33:27.907Z,78.02
2018-06-25T11:35:56.046Z,77.65
2018-06-25T11:38:24.217Z,77.70
2018-06-25T11:40:52.408Z,79.07
2018-06-25T11:43:20.665Z,77.58
2018-06-25T11:45:48.881Z,77.81
2018-06-25T11:48:17.134Z,78.30
2018-06-25T11:50:45.387Z,76.99
2018-06-25T11:53:13.590Z,76.99
2018-06-25T11:55:41.800Z,76.61
2018-06-25T11:58:10.019Z,77.97
2018-06-25T12:00:38.347Z,78.42
2018-06-25T12:03:07.366Z,77.37
2018-06-25T12:05:35.440Z,77.21
2018-06-25T12:08:04.191Z,77.27
2018-06-25T12:10:32.466Z,76.70
2018-06-25T12:13:00.573Z,76.96
2018-06-25T12:15:28.856Z,76.44
2018-06-25T12:17:57.072Z,76.89
2018-06-25T12:20:25.326Z,76.93
2018-06-25T12:22:53.546Z,76.31
2018-06-25T12:25:21.787Z,75.56
2018-06-25T12:27:49.998Z,75.23
2018-06-25T12:30:18.271Z,74.93
2018-06-25T12:32:46.533Z,75.02
2018-06-25T12:35:14.698Z,74.71
2018-06-25T12:37:43.020Z,74.44
2018-06-25T12:40:11.259Z,73.92
2018-06-25T12:42:39.545Z,74.19
2018-06-25T12:45:07.760Z,74.33
2018-06-25T12:47:35.941Z,74.23
2018-06-25T12:50:04.221Z,73.88
2018-06-25T12:52:32.487Z,73.23
2018-06-25T12:55:00.781Z,73.38
2018-06-25T12:57:29.168Z,72.76
2018-06-25T12:59:57.423Z,73.75
2018-06-25T13:02:25.675Z,73.07
2018-06-25T13:04:53.823Z,72.77
2018-06-25T13:07:22.004Z,72.38
2018-06-25T13:09:50.186Z,73.10
2018-06-25T13:12:18.465Z,72.50
2018-06-25T13:14:46.718Z,72.87
2018-06-25T13:17:15.013Z,71.65
2018-06-25T13:19:43.431Z,71.58
2018-06-25T13:22:11.622Z,71.02
2018-06-25T13:24:39.848Z,71.83
2018-06-25T13:27:08.037Z,71.79
2018-06-25T13:29:36.212Z,71.38
2018-06-25T13:32:04.441Z,71.32
2018-06-25T13:34:32.655Z,71.65
2018-06-25T13:37:00.924Z,70.91
2018-06-25T13:39:29.226Z,70.14
2018-06-25T13:41:57.456Z,70.41
2018-06-25T13:44:25.674Z,69.76
2018-06-25T13:46:53.849Z,69.78
2018-06-25T13:49:22.100Z,69.96
2018-06-25T13:51:50.365Z,69.77
2018-06-25T13:54:18.645Z,69.34
2018-06-25T13:56:47.126Z,69.90
2018-06-25T13:59:15.320Z,69.93
2018-06-25T14:01:43.485Z,70.57
2018-06-25T14:04:11.859Z,69.86
2018-06-25T14:06:40.043Z,70.33
2018-06-25T14:09:10.614Z,70.31
2018-06-25T14:11:38.961Z,70.07
2018-06-25T14:14:07.751Z,69.63
2018-06-25T14:16:36.297Z,69.97
2018-06-25T14:19:04.356Z,69.28
2018-06-25T14:21:32.523Z,68.88
2018-06-25T14:24:06.884Z,68.91
2018-06-25T14:26:40.625Z,69.20
2018-06-25T14:29:14.149Z,68.96
2018-06-25T14:31:42.429Z,68.68
2018-06-25T14:34:15.946Z,67.81
2018-06-25T14:36:44.279Z,67.56
2018-06-25T14:39:12.738Z,67.46
2018-06-25T14:41:40.912Z,66.54
2018-06-25T14:44:09.121Z,67.43
2018-06-25T14:46:37.485Z,66.72
2018-06-25T14:49:05.661Z,67.00
2018-06-25T14:51:33.973Z,67.34
2018-06-25T14:54:02.455Z,67.25
2018-06-25T14:56:30.792Z,65.73
2018-06-25T14:58:59.015Z,66.01
2018-06-25T15:01:27.341Z,65.15
2018-06-25T15:03:55.518Z,65.64
2018-06-25T15:06:23.691Z,66.15
2018-06-25T15:08:52.628Z,65.12
2018-06-25T15:11:20.809Z,64.36
2018-06-25T15:13:49.009Z,65.60
2018-06-25T15:16:17.336Z,64.92
2018-06-25T15:18:45.546Z,64.87
2018-06-25T15:21:13.854Z,64.77
2018-06-25T15:23:42.013Z,64.83
2018-06-25T15:26:10.185Z,64.93
2018-06-25T15:28:38.423Z,64.56
2018-06-25T15:31:06.627Z,64.84
2018-06-25T15:33:34.968Z,64.47
2018-06-25T15:36:03.239Z,64.77
2018-06-25T15:38:31.544Z,64.86
2018-06-25T15:40:59.710Z,63.72
2018-06-25T15:43:28.382Z,64.67
2018-06-25T15:45:56.660Z,64.62
2018-06-25T15:48:24.861Z,64.21
2018-06-25T15:50:53.924Z,65.01
2018-06-25T15:53:22.101Z,64.51
2018-06-25T15:55:50.304Z,64.55
2018-06-25T15:58:18.455Z,65.37
2018-06-25T16:00:46.657Z,65.99
2018-06-25T16:03:14.821Z,65.29
2018-06-25T16:05:43.163Z,65.37
2018-06-25T16:08:11.445Z,65.86
2018-06-25T16:10:39.799Z,65.37
2018-06-25T16:13:08.032Z,65.62
2018-06-25T16:15:36.193Z,65.01
2018-06-25T16:18:04.414Z,65.64
2018-06-25T16:20:32.609Z,66.09
2018-06-25T16:23:00.838Z,66.25
2018-06-25T16:25:29.160Z,66.47
2018-06-25T16:27:57.388Z,65.70
2018-06-25T16:30:25.613Z,66.47
2018-06-25T16:32:54.933Z,66.22
2018-06-25T16:35:23.090Z,66.43
2018-06-25T16:37:51.429Z,66.49
2018-06-25T16:40:19.645Z,66.35
2018-06-25T16:42:47.861Z,67.57
2018-06-25T16:45:16.049Z,66.70
2018-06-25T16:47:44.207Z,67.05
2018-06-25T16:50:12.432Z,67.60
2018-06-25T16:52:40.645Z,67.95
2018-06-25T16:55:08.964Z,67.50
2018-06-25T16:57:37.274Z,68.28
2018-06-25T17:00:06.009Z,68.47
2018-06-25T17:02:34.738Z,68.29
2018-06-25T17:05:03.055Z,68.32
2018-06-25T17:07:31.246Z,68.16
2018-06-25T17:09:59.523Z,68.22
2018-06-25T17:12:27.761Z,68.35
2018-06-25T17:14:55.999Z,68.26
2018-06-25T17:17:24.342Z,68.23
2018-06-25T17:19:52.488Z,69.69
2018-06-25T17:22:20.673Z,68.37
2018-06-25T17:24:48.865Z,68.71
2018-06-25T17:27:17.713Z,68.36
2018-06-25T17:29:45.964Z,69.33
2018-06-25T17:32:14.141Z,69.13
2018-06-25T17:34:42.856Z,70.10
2018-06-25T17:37:11.160Z,70.47
2018-06-25T17:39:39.629Z,69.88
2018-06-25T17:42:07.876Z,70.12
2018-06-25T17:44:36.081Z,72.07
2018-06-25T17:47:04.281Z,70.92
2018-06-25T17:49:32.561Z,72.02
2018-06-25T17:52:00.756Z,71.12
2018-06-25T17:54:28.978Z,70.79
2018-06-25T17:56:57.193Z,70.45
2018-06-25T17:59:25.849Z,71.31
2018-06-25T18:01:54.033Z,71.50
2018-06-25T18:04:22.232Z,72.53
2018-06-25T18:06:50.804Z,72.60
2018-06-25T18:09:18.998Z,72.18
2018-06-25T18:11:47.159Z,73.81
2018-06-25T18:14:15.336Z,72.70
2018-06-25T18:16:43.556Z,73.57
2018-06-25T18:19:11.740Z,73.40
2018-06-25T18:21:39.899Z,74.51
2018-06-25T18:24:08.146Z,74.45
2018-06-25T18:26:36.352Z,73.17
2018-06-25T18:29:04.496Z,74.16
2018-06-25T18:31:32.658Z,73.36
2018-06-25T18:34:00.830Z,74.37
2018-06-25T18:36:29.047Z,74.73
2018-06-25T18:38:57.260Z,75.66
2018-06-25T18:41:25.538Z,75.31
2018-06-25T18:43:53.900Z,76.53
2018-06-25T18:46:22.113Z,76.16
2018-06-25T18:48:50.271Z,76.77
2018-06-25T18:51:18.482Z,77.04
2018-06-25T18:53:46.736Z,77.55
2018-06-25T18:56:15.035Z,76.54
2018-06-25T18:58:43.254Z,76.78
2018-06-25T19:01:11.479Z,77.81
2018-06-25T19:03:39.684Z,77.71
2018-06-25T19:06:07.950Z,78.60
2018-06-25T19:08:36.240Z,77.87
2018-06-25T19:11:04.471Z,79.77
2018-06-25T19:13:32.710Z,79.40
2018-06-25T19:16:00.997Z,79.06
2018-06-25T19:18:29.307Z,79.60
2018-06-25T19:20:57.507Z,78.75
2018-06-25T19:23:25.785Z,79.03
2018-06-25T19:25:53.965Z,79.39
2018-06-25T19:28:22.242Z,79.33
2018-06-25T19:30:50.412Z,80.82
2018-06-25T19:33:18.705Z,79.65
2018-06-25T19:35:47.155Z,79.86
2018-06-25T19:38:15.356Z,79.01
2018-06-25T19:40:43.662Z,79.42
2018-06-25T19:43:11.917Z,79.16
2018-06-25T19:45:40.076Z,79.29
2018-06-25T19:48:08.282Z,80.57
2018-06-25T19:50:36.482Z,80.18
2018-06-25T19:53:04.637Z,79.93
2018-06-25T19:55:33.074Z,81.31
2018-06-25T19:58:01.421Z,80.97
2018-06-25T20:00:29.595Z,80.48
2018-06-25T20:02:57.782Z,80.74
2018-06-25T20:05:25.969Z,80.87
2018-06-25T20:07:54.218Z,79.76
2018-06-25T20:10:22.468Z,79.86
2018-06-25T20:12:50.801Z,79.93
2018-06-25T20:15:19.179Z,79.67
2018-06-25T20:17:47.352Z,82.31
2018-06-25T20:20:15.549Z,81.04
2018-06-25T20:22:43.800Z,80.57
2018-06-25T20:25:11.949Z,81.10
2018-06-25T20:27:40.169Z,81.21
2018-06-25T20:30:08.934Z,80.48
2018-06-25T20:32:37.340Z,80.54
2018-06-25T20:35:06.339Z,80.62
2018-06-25T20:37:34.654Z,80.81
2018-06-25T20:40:02.924Z,80.60
2018-06-25T20:42:31.186Z,80.77
2018-06-25T20:44:59.357Z,80.53
2018-06-25T20:47:27.546Z,80.55
2018-06-25T20:49:55.744Z,80.87
2018-06-25T20:52:23.902Z,81.60
2018-06-25T20:54:52.115Z,81.18
2018-06-25T20:57:20.286Z,81.12
2018-06-25T20:59:48.482Z,81.70
2018-06-25T21:02:16.657Z,80.37
2018-06-25T21:04:44.861Z,80.44
2018-06-25T21:07:14.132Z,80.11
2018-06-25T21:09:42.311Z,79.78
2018-06-25T21:12:10.573Z,79.83
2018-06-25T21:14:38.796Z,80.36
2018-06-25T21:17:07.067Z,79.88
2018-06-25T21:19:35.519Z,79.71
2018-06-25T21:22:03.747Z,79.40
2018-06-25T21:24:31.898Z,79.29
2018-06-25T21:27:00.088Z,78.90
2018-06-25T21:29:28.277Z,80.18
2018-06-25T21:31:56.499Z,79.70
2018-06-25T21:34:24.693Z,80.26
2018-06-25T21:36:53.177Z,80.91
2018-06-25T21:39:21.428Z,79.55
2018-06-25T21:41:49.745Z,80.35
2018-06-25T21:44:17.937Z,79.96
2018-06-25T21:46:46.654Z,80.72
2018-06-25T21:49:14.876Z,81.13
2018-06-25T21:51:43.105Z,80.38
2018-06-25T21:54:11.258Z,80.59
2018-06-25T21:56:39.442Z,81.24
2018-06-25T21:59:07.618Z,80.89
2018-06-25T22:01:35.986Z,81.30
2018-06-25T22:04:04.122Z,81.34
2018-06-25T22:06:32.340Z,81.04
2018-06-25T22:09:00.495Z,80.11
2018-06-25T22:11:28.719Z,80.51
2018-06-25T22:13:56.964Z,80.39
2018-06-25T22:16:25.202Z,80.09
2018-06-25T22:18:53.401Z,80.93
2018-06-25T22:21:21.567Z,81.09
2018-06-25T22:23:49.889Z,80.89
2018-06-25T22:26:18.042Z,80.69
2018-06-25T22:28:46.218Z,80.21
2018-06-25T22:31:14.379Z,80.77
2018-06-25T22:33:42.649Z,81.53
2018-06-25T22:36:11.029Z,80.97
2018-06-25T22:38:39.261Z,80.82
2018-06-25T22:41:07.469Z,80.89
2018-06-25T22:43:35.692Z,81.03
2018-06-25T22:46:03.883Z,81.43
2018-06-25T22:48:32.081Z,80.88
2018-06-25T22:51:00.467Z,80.87
2018-06-25T22:53:28.740Z,81.41
2018-06-25T22:55:57.015Z,81.10
2018-06-25T22:58:25.277Z,81.10
2018-06-25T23:00:53.540Z,81.75
2018-06-25T23:03:21.811Z,81.51
2018-06-25T23:05:50.006Z,81.48
2018-06-25T23:08:24.906Z,81.77
2018-06-25T23:10:53.236Z,82.18
2018-06-25T23:13:22.532Z,81.89
2018-06-25T23:15:50.740Z,82.20
2018-06-25T23:18:19.017Z,82.54
2018-06-25T23:20:47.300Z,82.59
2018-06-25T23:23:15.561Z,82.27
2018-06-25T23:25:43.815Z,82.64
2018-06-25T23:28:12.041Z,81.71
2018-06-25T23:30:40.209Z,81.84
2018-06-25T23:33:08.390Z,81.87
2018-06-25T23:35:36.541Z,82.42
2018-06-25T23:38:04.780Z,81.93
2018-06-25T23:40:33.024Z,81.49
2018-06-25T23:43:01.310Z,81.88
2018-06-25T23:45:29.627Z,82.46
2018-06-25T23:47:57.828Z,82.56
2018-06-25T23:50:26.134Z,82.34
2018-06-25T23:52:54.354Z,82.87
2018-06-25T23:55:22.572Z,82.39
2018-06-25T23:57:50.830Z,82.85
